TimeCDT,TemperatureF,Dew PointF,Humidity,Sea Level PressureIn,VisibilityMPH,Wind Direction,Wind SpeedMPH,Gust SpeedMPH,PrecipitationIn,Events,Conditions,WindDirDegrees,DateUTC
12:15 AM,54.1,43.0,66,29.97,10.0,SSE,5.8,-,N/A,,Clear,160,2013-10-08 05:15:00
12:35 AM,53.8,43.0,67,29.96,10.0,South,6.9,-,N/A,,Clear,170,2013-10-08 05:35:00
12:55 AM,53.6,42.8,67,29.96,10.0,South,6.9,-,N/A,,Clear,170,2013-10-08 05:55:00
1:15 AM,54.0,42.8,66,29.96,10.0,South,6.9,-,N/A,,Clear,170,2013-10-08 06:15:00
1:35 AM,53.1,42.8,68,29.96,10.0,SSE,6.9,-,N/A,,Clear,160,2013-10-08 06:35:00
1:55 AM,52.2,42.4,69,29.96,10.0,South,4.6,-,N/A,,Clear,170,2013-10-08 06:55:00
2:15 AM,50.4,42.6,75,29.96,10.0,South,5.8,-,N/A,,Clear,170,2013-10-08 07:15:00
2:35 AM,50.4,42.4,74,29.96,10.0,South,5.8,-,N/A,,Clear,170,2013-10-08 07:35:00
2:55 AM,52.7,42.6,69,29.96,10.0,South,6.9,-,N/A,,Clear,170,2013-10-08 07:55:00
3:15 AM,53.1,42.3,67,29.95,10.0,South,5.8,-,N/A,,Clear,170,2013-10-08 08:15:00
3:35 AM,52.2,42.8,70,29.95,10.0,South,4.6,-,N/A,,Clear,170,2013-10-08 08:35:00
3:55 AM,53.1,42.4,67,29.94,10.0,South,6.9,-,N/A,,Clear,170,2013-10-08 08:55:00
4:15 AM,51.6,42.4,71,29.94,10.0,South,6.9,-,N/A,,Clear,170,2013-10-08 09:15:00
4:35 AM,52.9,42.3,67,29.95,10.0,South,5.8,-,N/A,,Clear,170,2013-10-08 09:35:00
4:55 AM,52.7,42.1,67,29.95,10.0,South,4.6,-,N/A,,Clear,170,2013-10-08 09:55:00
5:15 AM,52.2,42.1,69,29.95,10.0,South,6.9,-,N/A,,Clear,180,2013-10-08 10:15:00
5:35 AM,52.9,42.1,67,29.94,10.0,South,8.1,-,N/A,,Clear,170,2013-10-08 10:35:00
5:55 AM,52.7,42.3,68,29.95,10.0,South,8.1,-,N/A,,Clear,180,2013-10-08 10:55:00
6:15 AM,52.9,42.1,67,29.95,10.0,South,6.9,-,N/A,,Clear,170,2013-10-08 11:15:00
6:35 AM,52.5,42.1,68,29.95,10.0,South,6.9,-,N/A,,Clear,170,2013-10-08 11:35:00
6:55 AM,53.1,41.9,66,29.95,10.0,South,9.2,-,N/A,,Clear,180,2013-10-08 11:55:00
7:15 AM,53.1,41.9,66,29.95,10.0,South,9.2,-,N/A,,Clear,170,2013-10-08 12:15:00
7:35 AM,53.4,41.9,65,29.95,10.0,South,10.4,-,N/A,,Clear,180,2013-10-08 12:35:00
7:55 AM,53.1,42.1,66,29.95,10.0,South,10.4,-,N/A,,Clear,180,2013-10-08 12:55:00
8:15 AM,53.8,42.1,65,29.95,10.0,South,10.4,-,N/A,,Clear,180,2013-10-08 13:15:00
8:35 AM,55.2,42.4,62,29.95,10.0,South,12.7,-,N/A,,Clear,180,2013-10-08 13:35:00
8:55 AM,56.8,42.8,59,29.95,10.0,South,11.5,-,N/A,,Clear,190,2013-10-08 13:55:00
9:15 AM,59.4,42.6,54,29.95,10.0,South,15.0,18.4,N/A,,Clear,190,2013-10-08 14:15:00
9:35 AM,61.5,41.4,48,29.94,10.0,SSW,13.8,20.7,N/A,,Clear,200,2013-10-08 14:35:00
9:55 AM,63.5,41.2,44,29.94,10.0,SSW,17.3,-,N/A,,Clear,200,2013-10-08 14:55:00
10:15 AM,65.3,40.3,40,29.94,10.0,South,13.8,20.7,N/A,,Clear,190,2013-10-08 15:15:00
10:35 AM,66.6,40.6,39,29.92,10.0,South,18.4,25.3,N/A,,Clear,190,2013-10-08 15:35:00
10:55 AM,68.4,40.3,36,29.92,10.0,South,17.3,24.2,N/A,,Clear,190,2013-10-08 15:55:00
11:15 AM,69.1,40.3,35,29.92,10.0,South,19.6,26.5,N/A,,Clear,190,2013-10-08 16:15:00
11:35 AM,70.9,39.6,32,29.91,10.0,South,18.4,28.8,N/A,,Clear,190,2013-10-08 16:35:00
11:55 AM,72.7,38.7,29,29.91,10.0,SSW,21.9,27.6,N/A,,Clear,210,2013-10-08 16:55:00
12:15 PM,73.6,37.9,27,29.90,10.0,South,24.2,29.9,N/A,,Clear,190,2013-10-08 17:15:00
12:35 PM,74.3,37.6,26,29.89,10.0,South,24.2,33.4,N/A,,Clear,190,2013-10-08 17:35:00
12:55 PM,74.1,37.0,26,29.89,10.0,South,23.0,28.8,N/A,,Clear,180,2013-10-08 17:55:00
1:15 PM,76.1,36.3,24,29.88,10.0,South,23.0,31.1,N/A,,Clear,190,2013-10-08 18:15:00
1:35 PM,77.4,38.1,24,29.87,10.0,South,21.9,29.9,N/A,,Clear,190,2013-10-08 18:35:00
1:55 PM,77.7,37.2,23,29.87,10.0,SSW,25.3,32.2,N/A,,Clear,200,2013-10-08 18:55:00
2:15 PM,77.9,37.8,24,29.86,10.0,South,24.2,33.4,N/A,,Clear,190,2013-10-08 19:15:00
2:35 PM,76.6,37.8,25,29.86,10.0,South,24.2,33.4,N/A,,Clear,190,2013-10-08 19:35:00
2:55 PM,78.1,38.3,24,29.85,10.0,South,25.3,31.1,N/A,,Clear,180,2013-10-08 19:55:00
3:15 PM,78.4,37.8,23,29.85,10.0,SSW,25.3,32.2,N/A,,Clear,200,2013-10-08 20:15:00
3:35 PM,78.6,38.5,24,29.85,10.0,South,20.7,28.8,N/A,,Clear,190,2013-10-08 20:35:00
3:55 PM,78.8,36.5,22,29.85,10.0,South,25.3,32.2,N/A,,Clear,180,2013-10-08 20:55:00
4:15 PM,78.8,37.9,23,29.85,10.0,South,17.3,27.6,N/A,,Clear,190,2013-10-08 21:15:00
4:35 PM,77.7,37.4,23,29.85,10.0,South,17.3,31.1,N/A,,Clear,190,2013-10-08 21:35:00
4:55 PM,77.9,38.5,24,29.85,10.0,South,23.0,26.5,N/A,,Clear,180,2013-10-08 21:55:00
5:15 PM,76.8,38.5,25,29.85,10.0,South,17.3,27.6,N/A,,Clear,180,2013-10-08 22:15:00
5:35 PM,75.9,38.3,26,29.85,10.0,South,16.1,26.5,N/A,,Clear,180,2013-10-08 22:35:00
5:55 PM,75.2,39.2,27,29.85,10.0,South,15.0,23.0,N/A,,Clear,180,2013-10-08 22:55:00
6:15 PM,74.7,38.7,27,29.85,10.0,South,18.4,26.5,N/A,,Clear,180,2013-10-08 23:15:00
6:35 PM,73.4,39.0,29,29.85,10.0,South,18.4,23.0,N/A,,Clear,180,2013-10-08 23:35:00
6:55 PM,72.7,39.2,30,29.85,10.0,South,16.1,23.0,N/A,,Clear,180,2013-10-08 23:55:00
7:15 PM,72.0,39.2,30,29.86,10.0,South,17.3,24.2,N/A,,Clear,180,2013-10-09 00:15:00
7:35 PM,71.4,39.0,31,29.87,10.0,South,12.7,21.9,N/A,,Clear,180,2013-10-09 00:35:00
7:55 PM,69.3,40.6,35,29.87,10.0,South,13.8,19.6,N/A,,Clear,170,2013-10-09 00:55:00
8:15 PM,68.9,40.8,36,29.87,10.0,South,12.7,19.6,N/A,,Clear,180,2013-10-09 01:15:00
8:35 PM,68.5,40.8,36,29.88,10.0,South,13.8,-,N/A,,Clear,180,2013-10-09 01:35:00
8:55 PM,68.2,40.6,37,29.89,10.0,South,12.7,18.4,N/A,,Clear,190,2013-10-09 01:55:00
9:15 PM,67.3,41.2,39,29.90,10.0,South,11.5,16.1,N/A,,Clear,180,2013-10-09 02:15:00
9:35 PM,67.1,41.7,40,29.90,10.0,South,13.8,19.6,N/A,,Clear,180,2013-10-09 02:35:00
9:55 PM,66.6,42.3,41,29.91,10.0,South,17.3,24.2,N/A,,Clear,180,2013-10-09 02:55:00
10:15 PM,66.2,42.3,42,29.92,10.0,South,15.0,19.6,N/A,,Clear,180,2013-10-09 03:15:00
10:35 PM,66.0,42.4,42,29.92,10.0,South,12.7,-,N/A,,Clear,180,2013-10-09 03:35:00
10:55 PM,65.3,42.8,44,29.93,10.0,South,16.1,19.6,N/A,,Clear,180,2013-10-09 03:55:00
11:15 PM,64.4,43.0,46,29.94,10.0,South,13.8,-,N/A,,Clear,180,2013-10-09 04:15:00
11:35 PM,63.5,43.7,48,29.94,10.0,South,12.7,-,N/A,,Clear,180,2013-10-09 04:35:00
11:55 PM,62.8,43.9,50,29.95,10.0,South,11.5,-,N/A,,Clear,180,2013-10-09 04:55:00